Time;durP1;ratioP1;P1;durP2;ratioP2;P2;SDS_P1;SDS_P2;PMS_P1;PMS_P2;Temp;Humidity;BMP_temperature;BMP_pressure;BME280_temperature;BME280_humidity;BME280_pressure;Samples;Min_cycle;Max_cycle;Signal;HPM_P1;HPM_P2
2022/05/27 00:02:01;;;;;;;6.38;5.85;;;;;;;;;;5028559;28;20041;-64
2022/05/27 00:04:27;;;;;;;6.95;6.40;;;;;;;;;;5027105;28;20033;-64
2022/05/27 00:06:52;;;;;;;6.93;6.32;;;;;;;;;;5045416;28;20037;-64
2022/05/27 00:09:18;;;;;;;6.68;6.07;;;;;;;;;;5030799;28;20113;-64
2022/05/27 00:11:44;;;;;;;6.63;6.03;;;;;;;;;;5014904;28;20951;-65
2022/05/27 00:14:09;;;;;;;6.60;5.95;;;;;;;;;;5029501;28;20040;-64
2022/05/27 00:16:35;;;;;;;6.82;6.22;;;;;;;;;;5023984;28;20063;-64
2022/05/27 00:19:00;;;;;;;6.43;5.93;;;;;;;;;;5028434;28;20095;-64
2022/05/27 00:21:27;;;;;;;7.03;5.95;;;;;;;;;;5028459;28;20427;-64
2022/05/27 00:23:52;;;;;;;6.22;5.82;;;;;;;;;;5028871;28;20456;-64
2022/05/27 00:26:18;;;;;;;6.55;5.95;;;;;;;;;;5036831;28;20060;-64
2022/05/27 00:28:43;;;;;;;6.57;5.97;;;;;;;;;;5031346;28;20062;-64
2022/05/27 00:31:09;;;;;;;6.82;6.22;;;;;;;;;;5036758;28;20041;-64
2022/05/27 00:33:38;;;;;;;13.18;6.10;;;;;;;;;;5027357;28;20021;-64
2022/05/27 00:36:11;;;;;;;6.18;5.75;;;;;;;;;;5028228;28;20510;-64
2022/05/27 00:38:38;;;;;;;6.63;6.13;;;;;;;;;;5025695;28;20110;-65
2022/05/27 00:41:03;;;;;;;6.38;5.78;;;;;;;;;;5029936;28;20547;-64
2022/05/27 00:43:29;;;;;;;6.78;6.10;;;;;;;;;;5024353;28;20068;-65
2022/05/27 00:46:03;;;;;;;7.93;6.15;;;;;;;;;;5026371;28;20439;-64
2022/05/27 00:48:31;;;;;;;6.53;5.95;;;;;;;;;;5031475;28;20032;-65
2022/05/27 00:50:57;;;;;;;7.15;6.55;;;;;;;;;;5033229;28;20156;-64
2022/05/27 00:53:33;;;;;;;6.55;6.05;;;;;;;;;;5022597;28;20025;-64
2022/05/27 00:56:00;;;;;;;6.95;6.45;;;;;;;;;;5032091;28;20136;-64
2022/05/27 00:58:45;;;;;;;6.95;6.15;;;;;;;;;;5035844;28;20443;-64
2022/05/27 01:01:13;;;;;;;7.03;6.28;;;;;;;;;;5023309;28;20045;-64
2022/05/27 01:03:40;;;;;;;6.70;6.15;;;;;;;;;;5030356;28;20097;-64
2022/05/27 01:06:06;;;;;;;7.18;6.47;;;;;;;;;;5027359;28;20037;-63
2022/05/27 01:08:32;;;;;;;8.20;6.65;;;;;;;;;;5027357;28;20389;-64
2022/05/27 01:11:07;;;;;;;7.03;6.32;;;;;;;;;;5037490;28;20086;-64
2022/05/27 01:14:07;;;;;;;6.07;5.65;;;;;;;;;;5040830;28;20092;-64
2022/05/27 01:17:05;;;;;;;6.20;5.70;;;;;;;;;;5021047;28;20080;-64
2022/05/27 01:23:14;;;;;;;6.80;6.20;;;;;;;;;;5026570;28;20064;-64
2022/05/27 01:25:48;;;;;;;6.57;6.07;;;;;;;;;;5025694;28;20042;-64
2022/05/27 01:28:56;;;;;;;6.50;6.00;;;;;;;;;;5029698;28;20034;-64
2022/05/27 01:31:21;;;;;;;6.75;6.05;;;;;;;;;;5016519;28;20034;-64
2022/05/27 01:34:05;;;;;;;6.38;5.88;;;;;;;;;;5025838;28;20040;-64
2022/05/27 01:36:36;;;;;;;6.45;5.93;;;;;;;;;;5028315;28;20049;-65
2022/05/27 01:39:11;;;;;;;6.60;6.10;;;;;;;;;;5026957;28;20341;-64
2022/05/27 01:41:42;;;;;;;6.63;6.13;;;;;;;;;;5024676;28;20063;-64
2022/05/27 01:44:12;;;;;;;7.30;6.05;;;;;;;;;;5027206;28;20037;-64
2022/05/27 01:46:43;;;;;;;8.00;5.93;;;;;;;;;;5028232;28;20568;-64
2022/05/27 01:49:38;;;;;;;6.60;6.00;;;;;;;;;;5026804;28;20040;-64
2022/05/27 01:52:36;;;;;;;6.95;6.15;;;;;;;;;;5016817;28;20524;-64
2022/05/27 01:55:09;;;;;;;6.78;6.18;;;;;;;;;;4989441;28;20058;-64
2022/05/27 01:57:45;;;;;;;6.30;5.70;;;;;;;;;;5027260;28;20030;-64
2022/05/27 02:00:12;;;;;;;6.32;5.72;;;;;;;;;;5024805;28;20040;-64
2022/05/27 02:02:44;;;;;;;6.18;5.72;;;;;;;;;;5038505;28;20032;-64
2022/05/27 02:05:26;;;;;;;6.47;5.95;;;;;;;;;;5030131;28;20091;-64
2022/05/27 02:07:57;;;;;;;6.90;6.07;;;;;;;;;;5027882;28;21286;-64
2022/05/27 02:10:32;;;;;;;7.00;6.10;;;;;;;;;;5023125;28;20544;-65
2022/05/27 02:13:04;;;;;;;8.80;5.53;;;;;;;;;;5028651;28;20129;-64
2022/05/27 02:15:35;;;;;;;6.53;5.93;;;;;;;;;;5026738;28;20041;-64
2022/05/27 02:18:22;;;;;;;6.38;5.78;;;;;;;;;;5021580;28;20083;-64
2022/05/27 02:20:54;;;;;;;6.53;5.93;;;;;;;;;;5030471;28;20033;-64
2022/05/27 02:23:39;;;;;;;6.15;5.63;;;;;;;;;;5025194;28;20040;-65
2022/05/27 02:26:09;;;;;;;7.35;5.72;;;;;;;;;;5009309;28;20123;-64
2022/05/27 02:28:41;;;;;;;6.60;6.10;;;;;;;;;;5030018;28;20056;-64
2022/05/27 02:31:23;;;;;;;6.93;6.32;;;;;;;;;;5034977;28;20032;-64
2022/05/27 02:36:55;;;;;;;6.03;5.53;;;;;;;;;;5030001;28;20048;-64
2022/05/27 02:39:21;;;;;;;6.00;5.50;;;;;;;;;;5015245;28;20040;-64
2022/05/27 02:42:15;;;;;;;8.60;5.60;;;;;;;;;;5022060;28;20061;-64
2022/05/27 02:45:08;;;;;;;6.20;5.70;;;;;;;;;;5024616;28;20493;-64
2022/05/27 02:47:40;;;;;;;6.43;5.82;;;;;;;;;;5030562;28;20041;-64
2022/05/27 02:50:43;;;;;;;7.47;5.93;;;;;;;;;;5038710;28;20543;-64
2022/05/27 02:53:15;;;;;;;6.03;5.53;;;;;;;;;;5030967;28;20048;-64
2022/05/27 02:56:02;;;;;;;6.00;5.60;;;;;;;;;;5027183;28;20082;-64
2022/05/27 02:58:30;;;;;;;6.07;5.57;;;;;;;;;;5025670;28;20459;-64
2022/05/27 03:00:56;;;;;;;6.07;5.40;;;;;;;;;;5030261;28;20040;-64
2022/05/27 03:03:21;;;;;;;6.32;5.32;;;;;;;;;;5027516;28;20034;-64
2022/05/27 03:05:53;;;;;;;7.55;5.88;;;;;;;;;;5030928;28;20029;-64
2022/05/27 03:08:26;;;;;;;6.25;5.75;;;;;;;;;;5035640;28;20041;-64
2022/05/27 03:11:22;;;;;;;6.45;5.93;;;;;;;;;;5037396;28;20033;-64
2022/05/27 03:13:58;;;;;;;6.00;5.50;;;;;;;;;;5027581;28;20113;-64
2022/05/27 03:16:36;;;;;;;6.20;5.65;;;;;;;;;;5033019;28;20564;-62
2022/05/27 03:19:08;;;;;;;6.80;5.93;;;;;;;;;;5022908;28;20034;-63
2022/05/27 03:21:42;;;;;;;6.35;5.75;;;;;;;;;;5028051;28;20126;-62
2022/05/27 03:24:18;;;;;;;6.10;5.70;;;;;;;;;;5026927;28;20037;-62
2022/05/27 03:26:53;;;;;;;6.25;5.40;;;;;;;;;;5028207;28;20041;-63
2022/05/27 03:29:37;;;;;;;6.32;5.85;;;;;;;;;;5029258;28;20025;-62
2022/05/27 03:32:38;;;;;;;7.28;6.00;;;;;;;;;;5034835;28;20131;-62
2022/05/27 03:35:28;;;;;;;6.47;6.00;;;;;;;;;;4982139;28;20395;-63
2022/05/27 03:38:20;;;;;;;6.85;6.28;;;;;;;;;;5033991;28;20028;-62
2022/05/27 03:40:49;;;;;;;6.60;6.00;;;;;;;;;;5027763;28;20033;-63
2022/05/27 03:43:15;;;;;;;;;;;;;;;;;;5031630;28;20044;-63
2022/05/27 03:45:53;;;;;;;6.60;6.00;;;;;;;;;;5035893;28;19916;-62
2022/05/27 03:48:21;;;;;;;6.32;5.82;;;;;;;;;;5030017;28;20412;-63
2022/05/27 03:50:49;;;;;;;6.63;6.13;;;;;;;;;;5028311;28;20516;-63
2022/05/27 03:53:15;;;;;;;6.25;5.75;;;;;;;;;;5028026;28;20453;-63
2022/05/27 03:55:44;;;;;;;6.40;5.80;;;;;;;;;;5023011;28;20112;-63
2022/05/27 03:58:17;;;;;;;6.10;5.70;;;;;;;;;;5033092;28;20056;-63
2022/05/27 04:00:43;;;;;;;7.00;6.40;;;;;;;;;;5027814;28;20041;-63
2022/05/27 04:03:10;;;;;;;7.07;6.47;;;;;;;;;;5027993;28;20030;-62
2022/05/27 04:05:37;;;;;;;9.55;6.70;;;;;;;;;;5034555;28;20099;-63
2022/05/27 04:08:03;;;;;;;6.88;6.22;;;;;;;;;;5029856;28;20099;-63
2022/05/27 04:10:29;;;;;;;7.03;6.43;;;;;;;;;;5028238;28;20037;-63
2022/05/27 04:12:55;;;;;;;6.78;6.20;;;;;;;;;;5028266;28;20121;-63
2022/05/27 04:15:20;;;;;;;6.88;5.90;;;;;;;;;;5033968;28;20037;-64
2022/05/27 04:17:46;;;;;;;6.00;5.50;;;;;;;;;;5026514;28;20060;-63
2022/05/27 04:20:15;;;;;;;6.10;5.60;;;;;;;;;;5039731;28;20117;-63
2022/05/27 04:22:42;;;;;;;5.97;5.57;;;;;;;;;;5027592;28;20476;-62
2022/05/27 04:25:08;;;;;;;6.03;5.53;;;;;;;;;;5026281;28;20504;-63
2022/05/27 04:27:35;;;;;;;6.35;5.80;;;;;;;;;;5027356;28;20080;-61
2022/05/27 04:30:01;;;;;;;5.93;5.53;;;;;;;;;;5035474;28;20059;-62
2022/05/27 04:32:27;;;;;;;6.00;5.60;;;;;;;;;;5028067;28;20088;-63
2022/05/27 04:34:54;;;;;;;6.03;5.63;;;;;;;;;;5027751;28;20037;-62
2022/05/27 04:37:21;;;;;;;6.20;5.70;;;;;;;;;;5026416;28;20037;-62
2022/05/27 04:39:46;;;;;;;6.50;6.00;;;;;;;;;;5034873;28;20041;-63
2022/05/27 04:42:12;;;;;;;6.00;5.50;;;;;;;;;;5030219;28;20032;-63
2022/05/27 04:44:38;;;;;;;6.68;5.75;;;;;;;;;;5034422;28;20037;-63
2022/05/27 04:47:05;;;;;;;6.63;6.13;;;;;;;;;;5031908;28;20078;-63
2022/05/27 04:52:15;;;;;;;6.82;6.13;;;;;;;;;;5024164;28;20048;-63
2022/05/27 04:54:41;;;;;;;6.40;5.93;;;;;;;;;;5024800;28;20021;-63
2022/05/27 04:57:06;;;;;;;6.20;5.80;;;;;;;;;;5032251;28;20053;-63
2022/05/27 04:59:36;;;;;;;6.85;5.90;;;;;;;;;;5027661;28;20392;-63
2022/05/27 05:02:03;;;;;;;8.32;6.10;;;;;;;;;;5027917;28;20404;-63
2022/05/27 05:04:29;;;;;;;6.55;6.05;;;;;;;;;;5032954;28;20600;-63
2022/05/27 05:07:00;;;;;;;5.85;5.50;;;;;;;;;;5030244;28;20112;-63
2022/05/27 05:09:26;;;;;;;6.50;6.00;;;;;;;;;;5024647;28;20100;-63
2022/05/27 05:11:51;;;;;;;6.40;5.80;;;;;;;;;;5038326;28;20500;-62
2022/05/27 05:14:17;;;;;;;6.20;5.70;;;;;;;;;;5026840;28;20045;-63
2022/05/27 05:16:43;;;;;;;6.00;5.60;;;;;;;;;;5026575;28;20044;-62
2022/05/27 05:19:08;;;;;;;6.20;5.70;;;;;;;;;;5022505;28;20033;-63
2022/05/27 05:21:35;;;;;;;6.20;5.70;;;;;;;;;;5034496;28;20416;-63
2022/05/27 05:24:01;;;;;;;6.38;5.90;;;;;;;;;;5025662;28;20037;-62
2022/05/27 05:26:26;;;;;;;6.70;6.18;;;;;;;;;;5026807;28;20041;-63
2022/05/27 05:28:52;;;;;;;6.35;5.82;;;;;;;;;;5033602;28;20033;-63
2022/05/27 05:31:18;;;;;;;6.50;6.00;;;;;;;;;;5028916;28;20071;-63
2022/05/27 05:33:43;;;;;;;6.90;6.20;;;;;;;;;;5026616;28;20370;-63
2022/05/27 05:36:10;;;;;;;6.65;5.80;;;;;;;;;;5025691;28;20041;-63
2022/05/27 05:38:36;;;;;;;9.63;6.00;;;;;;;;;;5026560;28;20041;-63
2022/05/27 05:41:02;;;;;;;6.50;5.97;;;;;;;;;;5026993;28;20041;-63
2022/05/27 05:43:27;;;;;;;6.57;5.88;;;;;;;;;;5025911;28;20044;-62
2022/05/27 05:45:53;;;;;;;6.43;5.93;;;;;;;;;;5023978;28;20045;-63
2022/05/27 05:48:18;;;;;;;6.80;6.30;;;;;;;;;;5008436;28;20468;-63
2022/05/27 05:50:44;;;;;;;7.60;5.80;;;;;;;;;;5026510;28;20040;-63
2022/05/27 05:53:10;;;;;;;6.35;5.75;;;;;;;;;;5025134;28;20029;-63
2022/05/27 05:55:35;;;;;;;6.40;5.82;;;;;;;;;;5027019;28;20537;-63
2022/05/27 05:58:03;;;;;;;6.45;5.95;;;;;;;;;;5010551;28;20400;-63
2022/05/27 06:00:29;;;;;;;6.65;6.03;;;;;;;;;;5010717;28;20056;-63
2022/05/27 06:02:55;;;;;;;6.38;5.80;;;;;;;;;;5033105;28;20041;-63
2022/05/27 06:05:21;;;;;;;5.97;5.47;;;;;;;;;;5026423;28;20060;-62
2022/05/27 06:07:48;;;;;;;6.68;6.07;;;;;;;;;;5031165;28;20640;-62
2022/05/27 06:10:15;;;;;;;6.65;5.70;;;;;;;;;;5033299;28;20033;-62
2022/05/27 06:12:41;;;;;;;6.88;6.10;;;;;;;;;;5027475;28;20029;-63
2022/05/27 06:15:10;;;;;;;6.30;5.80;;;;;;;;;;5025182;28;20108;-63
2022/05/27 06:17:35;;;;;;;6.25;5.60;;;;;;;;;;5032469;28;20033;-63
2022/05/27 06:20:02;;;;;;;11.65;6.00;;;;;;;;;;5029596;28;20431;-63
2022/05/27 06:22:28;;;;;;;6.53;5.90;;;;;;;;;;5029586;28;20459;-63
2022/05/27 06:24:54;;;;;;;6.28;5.57;;;;;;;;;;5026758;28;20493;-63
2022/05/27 06:27:19;;;;;;;7.97;5.97;;;;;;;;;;5030214;28;20492;-63
2022/05/27 06:35:13;;;;;;;7.95;5.97;;;;;;;;;;5031824;28;20124;-62
2022/05/27 06:37:38;;;;;;;6.57;5.97;;;;;;;;;;5032504;28;20619;-61
2022/05/27 06:40:06;;;;;;;5.75;5.35;;;;;;;;;;5033010;28;20045;-59
2022/05/27 06:42:31;;;;;;;6.07;5.47;;;;;;;;;;5038999;28;20041;-59
2022/05/27 06:44:59;;;;;;;6.00;5.60;;;;;;;;;;5031557;28;20068;-61
2022/05/27 06:47:25;;;;;;;6.00;5.60;;;;;;;;;;5015067;28;20041;-58
2022/05/27 06:49:51;;;;;;;5.82;5.25;;;;;;;;;;5038737;28;20120;-60
2022/05/27 06:52:16;;;;;;;6.07;5.50;;;;;;;;;;5030382;28;20056;-56
2022/05/27 06:54:42;;;;;;;6.13;5.63;;;;;;;;;;5028249;28;20033;-62
2022/05/27 06:57:08;;;;;;;5.63;5.13;;;;;;;;;;5049954;28;20124;-62
2022/05/27 06:59:35;;;;;;;5.88;5.35;;;;;;;;;;5030908;28;20044;-62
2022/05/27 07:02:02;;;;;;;7.13;6.05;;;;;;;;;;5047511;28;20163;-62
2022/05/27 07:04:28;;;;;;;6.32;5.72;;;;;;;;;;5031110;28;20033;-62
2022/05/27 07:06:54;;;;;;;7.07;5.60;;;;;;;;;;5035263;28;20044;-62
2022/05/27 07:09:21;;;;;;;6.28;5.70;;;;;;;;;;5029018;28;20043;-62
2022/05/27 07:11:50;;;;;;;6.13;5.63;;;;;;;;;;5029513;28;20091;-62
2022/05/27 07:14:17;;;;;;;5.72;5.40;;;;;;;;;;5021658;28;20115;-62
2022/05/27 07:16:45;;;;;;;5.97;5.43;;;;;;;;;;5039402;28;20304;-61
2022/05/27 07:19:11;;;;;;;7.00;5.72;;;;;;;;;;5034648;28;20033;-62
2022/05/27 07:21:39;;;;;;;6.30;5.80;;;;;;;;;;5029775;28;20772;-62
2022/05/27 07:24:09;;;;;;;6.55;5.97;;;;;;;;;;5025017;28;20112;-62
2022/05/27 07:26:37;;;;;;;6.40;5.80;;;;;;;;;;5029709;28;20044;-62
2022/05/27 07:29:04;;;;;;;7.05;5.82;;;;;;;;;;5029016;28;20107;-62
2022/05/27 07:31:29;;;;;;;7.45;5.95;;;;;;;;;;5031313;28;20053;-61
2022/05/27 07:33:56;;;;;;;6.85;6.15;;;;;;;;;;5035273;28;20056;-62
2022/05/27 07:36:22;;;;;;;5.95;5.45;;;;;;;;;;5029971;28;20032;-60
2022/05/27 07:38:51;;;;;;;7.38;5.75;;;;;;;;;;5028704;28;20029;-62
2022/05/27 07:41:17;;;;;;;6.43;5.80;;;;;;;;;;5031449;28;20029;-62
2022/05/27 07:43:44;;;;;;;6.68;5.90;;;;;;;;;;5036648;28;20059;-62
2022/05/27 07:46:11;;;;;;;6.80;6.20;;;;;;;;;;5033475;28;20041;-62
2022/05/27 07:48:37;;;;;;;8.02;6.30;;;;;;;;;;5028922;28;20025;-62
2022/05/27 07:51:03;;;;;;;7.53;5.97;;;;;;;;;;5027675;28;20043;-62
2022/05/27 07:53:28;;;;;;;6.45;5.85;;;;;;;;;;5034471;28;20041;-61
2022/05/27 07:55:54;;;;;;;6.50;5.80;;;;;;;;;;5019184;28;20083;-62
2022/05/27 07:58:19;;;;;;;6.50;5.93;;;;;;;;;;5027750;28;20061;-63
2022/05/27 08:00:45;;;;;;;6.70;5.97;;;;;;;;;;5027398;28;20047;-61
2022/05/27 08:03:12;;;;;;;6.43;5.93;;;;;;;;;;5026342;28;20052;-62
2022/05/27 08:05:39;;;;;;;6.50;6.00;;;;;;;;;;5049439;28;20064;-61
2022/05/27 08:08:06;;;;;;;7.03;6.32;;;;;;;;;;5029491;28;20069;-62
2022/05/27 08:10:34;;;;;;;6.90;5.88;;;;;;;;;;5024953;28;20037;-62
2022/05/27 08:13:00;;;;;;;7.83;6.70;;;;;;;;;;5031371;28;20040;-62
2022/05/27 08:15:27;;;;;;;6.68;6.05;;;;;;;;;;5030466;28;20033;-62
2022/05/27 08:17:52;;;;;;;6.93;6.32;;;;;;;;;;5028308;28;20038;-63
2022/05/27 08:20:22;;;;;;;6.60;5.90;;;;;;;;;;5030156;28;20044;-63
2022/05/27 08:22:50;;;;;;;6.30;5.80;;;;;;;;;;5033715;28;20098;-62
2022/05/27 08:25:16;;;;;;;8.07;6.20;;;;;;;;;;5027342;28;20034;-62
2022/05/27 08:27:43;;;;;;;9.00;5.80;;;;;;;;;;5026712;28;20875;-63
2022/05/27 08:30:18;;;;;;;7.20;6.32;;;;;;;;;;5030652;28;20106;-63
2022/05/27 08:32:43;;;;;;;6.60;6.10;;;;;;;;;;5024370;28;20480;-62
2022/05/27 08:38:09;;;;;;;6.72;6.20;;;;;;;;;;5059798;22;20093;-84
2022/05/27 08:40:54;;;;;;;6.85;5.97;;;;;;;;;;5023487;28;20310;-84
2022/05/27 08:43:51;;;;;;;6.13;5.53;;;;;;;;;;5034098;28;20468;-82
2022/05/27 08:46:41;;;;;;;6.78;5.97;;;;;;;;;;5034917;28;20040;-82
2022/05/27 08:49:12;;;;;;;6.40;5.80;;;;;;;;;;5054659;28;20043;-82
2022/05/27 08:51:53;;;;;;;7.28;5.85;;;;;;;;;;5054959;22;20053;-68
2022/05/27 08:54:28;;;;;;;6.88;5.55;;;;;;;;;;5028349;28;20121;-67
2022/05/27 08:59:49;;;;;;;6.18;5.68;;;;;;;;;;5028766;28;20032;-66
2022/05/27 09:02:29;;;;;;;5.95;5.45;;;;;;;;;;5020925;28;20049;-66
2022/05/27 09:05:25;;;;;;;6.40;5.90;;;;;;;;;;5040064;28;20038;-66
2022/05/27 09:08:18;;;;;;;6.10;5.50;;;;;;;;;;5017743;28;20033;-66
2022/05/27 09:10:57;;;;;;;5.60;5.10;;;;;;;;;;5024138;28;20156;-65
2022/05/27 09:13:43;;;;;;;6.85;5.75;;;;;;;;;;5028398;28;20108;-65
2022/05/27 09:16:17;;;;;;;6.00;5.50;;;;;;;;;;5036114;28;20069;-66
2022/05/27 09:18:51;;;;;;;6.93;5.80;;;;;;;;;;5017792;28;20033;-66
2022/05/27 09:21:25;;;;;;;5.90;5.43;;;;;;;;;;5029739;28;20044;-66
2022/05/27 09:24:45;;;;;;;6.00;5.50;;;;;;;;;;5025469;28;20117;-67
2022/05/27 09:27:24;;;;;;;8.48;5.50;;;;;;;;;;4961011;28;20421;-67
2022/05/27 09:29:56;;;;;;;5.80;5.00;;;;;;;;;;4967174;28;20043;-66
2022/05/27 09:32:31;;;;;;;7.35;5.45;;;;;;;;;;4965495;28;20039;-67
2022/05/27 09:35:02;;;;;;;5.30;4.90;;;;;;;;;;4966295;28;20030;-66
2022/05/27 09:37:34;;;;;;;5.60;5.20;;;;;;;;;;4969643;28;20100;-66
2022/05/27 09:40:05;;;;;;;5.93;5.43;;;;;;;;;;4966013;28;20058;-66
2022/05/27 09:42:38;;;;;;;6.28;5.75;;;;;;;;;;4967106;28;20722;-66
2022/05/27 09:45:05;;;;;;;5.72;5.18;;;;;;;;;;4985074;28;20113;-66
2022/05/27 09:47:33;;;;;;;5.40;5.00;;;;;;;;;;4971126;28;20120;-67
2022/05/27 09:50:05;;;;;;;6.03;5.53;;;;;;;;;;4968902;28;20066;-67
2022/05/27 09:52:35;;;;;;;5.90;5.47;;;;;;;;;;4968808;28;20050;-67
2022/05/27 09:55:15;;;;;;;7.25;5.25;;;;;;;;;;4981384;28;20041;-67
2022/05/27 09:57:57;;;;;;;4.50;4.10;;;;;;;;;;4965733;28;20121;-67
2022/05/27 10:00:44;;;;;;;6.95;5.20;;;;;;;;;;4967648;28;20039;-66
2022/05/27 10:03:36;;;;;;;5.93;4.70;;;;;;;;;;5010836;28;20038;-66
2022/05/27 10:06:10;;;;;;;4.93;4.50;;;;;;;;;;5024366;28;20628;-66
2022/05/27 10:08:38;;;;;;;5.82;5.15;;;;;;;;;;5031654;28;20473;-66
2022/05/27 10:11:18;;;;;;;5.30;4.80;;;;;;;;;;5033690;28;20353;-66
2022/05/27 10:13:45;;;;;;;4.93;4.63;;;;;;;;;;5019004;28;20029;-66
2022/05/27 10:16:21;;;;;;;5.78;5.28;;;;;;;;;;5024208;28;20099;-66
2022/05/27 10:18:47;;;;;;;18.92;5.40;;;;;;;;;;5028493;28;20033;-66
2022/05/27 10:21:17;;;;;;;4.93;4.53;;;;;;;;;;5026370;28;20029;-67
2022/05/27 10:23:46;;;;;;;4.93;4.63;;;;;;;;;;5028051;28;20037;-66
2022/05/27 10:26:29;;;;;;;;;;;;;;;;;;5024421;28;20117;-66
2022/05/27 10:29:06;;;;;;;4.78;4.32;;;;;;;;;;5024188;28;19940;-66
2022/05/27 10:31:32;;;;;;;4.93;4.55;;;;;;;;;;5029390;28;20091;-67
2022/05/27 10:34:00;;;;;;;5.20;4.70;;;;;;;;;;5034269;28;20443;-67
2022/05/27 10:36:28;;;;;;;4.97;4.68;;;;;;;;;;5030202;28;20033;-67
2022/05/27 10:39:04;;;;;;;4.60;4.30;;;;;;;;;;5033587;28;20407;-67
2022/05/27 10:41:32;;;;;;;5.00;4.57;;;;;;;;;;5034645;28;20033;-66
2022/05/27 10:44:14;;;;;;;5.18;4.68;;;;;;;;;;5029815;28;20041;-67
2022/05/27 10:46:57;;;;;;;5.13;4.80;;;;;;;;;;5028112;28;20034;-67
2022/05/27 10:49:25;;;;;;;5.22;4.82;;;;;;;;;;5025400;28;20033;-66
2022/05/27 10:52:22;;;;;;;5.20;4.77;;;;;;;;;;5030564;28;20034;-66
2022/05/27 10:55:00;;;;;;;6.03;4.68;;;;;;;;;;5017332;28;20666;-67
2022/05/27 11:04:21;;;;;;;4.63;4.33;;;;;;;;;;5021431;28;20037;-66
2022/05/27 11:07:05;;;;;;;4.78;4.28;;;;;;;;;;5017382;28;20569;-67
2022/05/27 11:09:44;;;;;;;4.70;4.30;;;;;;;;;;5025578;28;20977;-66
2022/05/27 11:12:19;;;;;;;4.55;4.30;;;;;;;;;;5039796;28;20653;-66
2022/05/27 11:15:11;;;;;;;4.90;4.32;;;;;;;;;;5023476;28;20038;-66
2022/05/27 11:17:46;;;;;;;5.50;5.00;;;;;;;;;;5025342;28;20037;-66
2022/05/27 11:20:54;;;;;;;5.90;4.63;;;;;;;;;;5028624;28;20037;-66
2022/05/27 11:23:28;;;;;;;6.82;4.80;;;;;;;;;;4982344;28;20093;-66
2022/05/27 11:26:10;;;;;;;5.00;4.60;;;;;;;;;;5019766;28;20033;-66
2022/05/27 11:29:10;;;;;;;5.93;5.10;;;;;;;;;;5033700;28;20400;-67
2022/05/27 11:31:41;;;;;;;5.53;4.80;;;;;;;;;;5025030;28;20100;-66
2022/05/27 11:34:39;;;;;;;5.13;4.72;;;;;;;;;;5023038;28;20060;-66
2022/05/27 11:37:24;;;;;;;5.90;5.00;;;;;;;;;;4965872;28;20166;-66
2022/05/27 11:40:11;;;;;;;5.55;5.15;;;;;;;;;;4955200;28;20066;-66
2022/05/27 11:42:56;;;;;;;8.38;5.13;;;;;;;;;;4966141;28;20825;-66
2022/05/27 11:45:28;;;;;;;6.03;4.88;;;;;;;;;;4961225;28;20045;-66
2022/05/27 11:48:14;;;;;;;5.85;4.63;;;;;;;;;;4964926;28;20109;-66
2022/05/27 11:51:07;;;;;;;5.25;4.85;;;;;;;;;;4964646;28;20034;-66
2022/05/27 11:53:59;;;;;;;4.72;4.38;;;;;;;;;;4966633;28;20124;-66
2022/05/27 11:56:37;;;;;;;4.90;4.60;;;;;;;;;;4931328;28;20062;-67
2022/05/27 11:59:25;;;;;;;4.80;4.50;;;;;;;;;;4960797;28;20051;-66
2022/05/27 12:02:02;;;;;;;4.97;4.60;;;;;;;;;;4969622;28;20034;-67
2022/05/27 12:04:52;;;;;;;4.68;4.38;;;;;;;;;;4961641;28;20057;-66
2022/05/27 12:07:28;;;;;;;5.20;4.28;;;;;;;;;;4962613;28;20062;-66
2022/05/27 12:10:31;;;;;;;4.70;4.30;;;;;;;;;;4968139;28;20065;-66
2022/05/27 12:13:16;;;;;;;6.25;4.63;;;;;;;;;;4998027;28;20048;-66
2022/05/27 12:15:49;;;;;;;4.63;4.22;;;;;;;;;;5035819;28;20041;-67
2022/05/27 12:18:36;;;;;;;6.10;4.90;;;;;;;;;;5015157;28;20036;-67
2022/05/27 12:21:05;;;;;;;5.10;4.80;;;;;;;;;;5020312;28;20159;-67
2022/05/27 12:23:35;;;;;;;5.25;4.80;;;;;;;;;;5016023;28;20059;-66
2022/05/27 12:26:01;;;;;;;5.03;4.63;;;;;;;;;;5016251;28;20042;-67
2022/05/27 12:28:30;;;;;;;4.45;4.15;;;;;;;;;;5019694;28;20152;-68
2022/05/27 12:30:58;;;;;;;6.25;4.93;;;;;;;;;;5023437;28;20446;-67
2022/05/27 12:33:26;;;;;;;5.20;4.80;;;;;;;;;;5021959;28;20025;-68
2022/05/27 12:36:04;;;;;;;4.63;4.32;;;;;;;;;;5024417;28;20048;-67
2022/05/27 12:38:34;;;;;;;4.70;4.40;;;;;;;;;;5025387;28;20526;-67
2022/05/27 12:41:09;;;;;;;5.18;4.50;;;;;;;;;;5025133;28;20678;-67
2022/05/27 12:43:53;;;;;;;6.15;4.45;;;;;;;;;;5018909;28;20813;-68
2022/05/27 12:46:32;;;;;;;5.20;4.78;;;;;;;;;;5025072;28;20037;-67
2022/05/27 12:49:19;;;;;;;4.93;4.50;;;;;;;;;;5019529;28;20040;-67
2022/05/27 12:51:46;;;;;;;5.20;4.80;;;;;;;;;;5017294;28;20301;-67
2022/05/27 12:54:43;;;;;;;5.38;4.90;;;;;;;;;;5012045;28;20037;-67
2022/05/27 13:00:58;;;;;;;4.93;4.53;;;;;;;;;;4950752;28;20130;-67
2022/05/27 13:03:33;;;;;;;;;;;;;;;;;;4935780;28;21865;-67
2022/05/27 13:06:14;;;;;;;5.50;5.10;;;;;;;;;;4941595;29;20779;-67
2022/05/27 13:09:04;;;;;;;5.30;4.90;;;;;;;;;;4943408;28;20082;-67
2022/05/27 13:11:35;;;;;;;4.75;4.45;;;;;;;;;;4936074;28;20679;-67
2022/05/27 13:14:03;;;;;;;5.18;4.70;;;;;;;;;;4941844;29;20537;-67
2022/05/27 13:17:04;;;;;;;5.85;5.10;;;;;;;;;;4942635;28;20071;-67
2022/05/27 13:19:44;;;;;;;5.25;4.95;;;;;;;;;;4942963;28;20066;-67
2022/05/27 13:22:14;;;;;;;5.20;4.78;;;;;;;;;;4942577;29;20051;-67
2022/05/27 13:24:47;;;;;;;6.13;5.10;;;;;;;;;;4943819;29;20642;-67
2022/05/27 13:27:16;;;;;;;5.60;5.20;;;;;;;;;;4939538;29;20048;-67
2022/05/27 13:29:53;;;;;;;5.40;5.00;;;;;;;;;;4939320;28;20151;-67
2022/05/27 13:32:52;;;;;;;5.10;4.80;;;;;;;;;;5025566;28;20068;-67
2022/05/27 13:35:19;;;;;;;;;;;;;;;;;;5032273;28;20040;-67
2022/05/27 13:37:59;;;;;;;5.45;4.95;;;;;;;;;;5020034;28;19925;-67
2022/05/27 13:40:30;;;;;;;5.43;4.93;;;;;;;;;;5018584;28;20159;-67
2022/05/27 13:43:25;;;;;;;5.07;4.78;;;;;;;;;;5028707;28;20044;-67
2022/05/27 13:46:03;;;;;;;5.00;4.70;;;;;;;;;;5014814;28;20127;-67
2022/05/27 13:48:35;;;;;;;5.43;5.00;;;;;;;;;;5021497;28;20068;-67
2022/05/27 13:51:11;;;;;;;5.03;4.60;;;;;;;;;;5024730;28;20075;-67
2022/05/27 13:53:38;;;;;;;4.82;4.53;;;;;;;;;;5020618;28;20522;-66
2022/05/27 13:56:16;;;;;;;4.85;4.55;;;;;;;;;;5016670;28;20041;-67
2022/05/27 13:58:54;;;;;;;5.07;4.78;;;;;;;;;;5025986;28;20040;-67
2022/05/27 14:01:32;;;;;;;4.85;4.55;;;;;;;;;;5028551;28;20045;-67
2022/05/27 14:04:20;;;;;;;4.88;4.50;;;;;;;;;;5022875;28;20033;-67
2022/05/27 14:06:45;;;;;;;4.93;4.63;;;;;;;;;;5022011;28;20042;-67
2022/05/27 14:09:18;;;;;;;4.80;4.40;;;;;;;;;;5031036;28;20088;-67
2022/05/27 14:11:49;;;;;;;5.00;4.50;;;;;;;;;;5024942;28;20068;-67
2022/05/27 14:14:20;;;;;;;4.80;4.50;;;;;;;;;;5019528;28;20083;-67
2022/05/27 14:16:46;;;;;;;5.82;4.57;;;;;;;;;;5023831;28;20069;-67
2022/05/27 14:19:25;;;;;;;4.82;4.53;;;;;;;;;;5027128;28;20052;-67
2022/05/27 14:24:52;;;;;;;5.15;4.80;;;;;;;;;;5013908;28;20033;-67
2022/05/27 14:27:27;;;;;;;5.13;4.72;;;;;;;;;;5021089;28;20037;-67
2022/05/27 14:29:57;;;;;;;5.30;4.90;;;;;;;;;;5028507;28;20026;-67
2022/05/27 14:32:24;;;;;;;5.40;4.90;;;;;;;;;;5021469;28;20499;-67
2022/05/27 14:34:53;;;;;;;5.07;4.53;;;;;;;;;;5044832;28;20658;-67
2022/05/27 14:37:21;;;;;;;5.10;4.70;;;;;;;;;;5044892;28;20017;-66
2022/05/27 14:39:50;;;;;;;5.22;4.68;;;;;;;;;;5021482;28;20506;-66
2022/05/27 14:42:17;;;;;;;4.72;4.40;;;;;;;;;;5030020;28;20037;-66
2022/05/27 14:44:46;;;;;;;4.80;4.50;;;;;;;;;;5030332;28;20045;-66
2022/05/27 14:47:44;;;;;;;5.20;4.90;;;;;;;;;;5029662;28;20037;-66
2022/05/27 14:50:12;;;;;;;4.90;4.50;;;;;;;;;;5019825;28;20112;-66
2022/05/27 14:52:40;;;;;;;5.17;4.80;;;;;;;;;;5035960;28;20041;-66
2022/05/27 14:55:09;;;;;;;5.25;4.70;;;;;;;;;;5018547;28;20384;-66
2022/05/27 14:57:38;;;;;;;4.93;4.53;;;;;;;;;;5026092;28;20041;-66
2022/05/27 15:00:06;;;;;;;4.60;4.40;;;;;;;;;;5030874;28;20029;-66
2022/05/27 15:02:51;;;;;;;4.90;4.22;;;;;;;;;;5021105;28;20045;-66
2022/05/27 15:05:26;;;;;;;4.80;4.50;;;;;;;;;;5043729;28;20380;-66
2022/05/27 15:07:55;;;;;;;4.40;4.13;;;;;;;;;;5033004;28;20040;-66
2022/05/27 15:10:29;;;;;;;4.80;4.40;;;;;;;;;;5019764;28;20496;-66
2022/05/27 15:12:56;;;;;;;4.75;4.45;;;;;;;;;;5038140;28;20095;-66
2022/05/27 15:15:28;;;;;;;4.53;4.28;;;;;;;;;;5030032;28;20034;-66
2022/05/27 15:18:28;;;;;;;4.72;4.32;;;;;;;;;;5029868;28;20041;-66
2022/05/27 15:21:12;;;;;;;4.53;4.22;;;;;;;;;;4977772;28;20049;-66
2022/05/27 15:23:50;;;;;;;4.60;4.30;;;;;;;;;;5021784;28;20454;-66
2022/05/27 15:34:47;;;;;;;4.53;4.32;;;;;;;;;;5015217;28;20028;-66
2022/05/27 15:37:15;;;;;;;4.60;4.25;;;;;;;;;;5030726;28;20041;-66
2022/05/27 15:39:40;;;;;;;4.13;3.90;;;;;;;;;;5022540;28;20045;-66
2022/05/27 15:42:07;;;;;;;4.55;4.30;;;;;;;;;;5021719;28;20038;-66
2022/05/27 15:44:33;;;;;;;4.53;4.22;;;;;;;;;;5017749;28;20040;-66
2022/05/27 15:46:58;;;;;;;4.50;4.20;;;;;;;;;;5032105;28;20037;-66
2022/05/27 15:49:24;;;;;;;4.30;4.10;;;;;;;;;;5039146;28;20559;-66
2022/05/27 15:51:49;;;;;;;4.93;4.63;;;;;;;;;;5021351;28;20081;-66
2022/05/27 15:54:17;;;;;;;4.63;4.40;;;;;;;;;;5024246;28;20040;-66
2022/05/27 15:56:42;;;;;;;4.80;4.50;;;;;;;;;;5025004;28;20036;-66
2022/05/27 15:59:08;;;;;;;4.68;4.38;;;;;;;;;;5027815;28;20041;-68
2022/05/27 16:01:34;;;;;;;4.25;3.95;;;;;;;;;;5020787;28;20079;-67